IOM weather

Public forecast

Using degrees Celsius for public forecast. Weather courtesy of forecast.io.

Current aviation weather report (METAR) for Isle of Man Airport

Retrieved 2020/08/13 14:20 UTC (2 minutes ago):

EGNS 131420Z 08011KT CAVOK 23/17 Q1014 NOSIG

Aviation forecast (TAF) for Isle of Man Airport

Forecast is more than 12 hours old.

Retrieved 2017/03/09 09:27 UTC (3 years ago):

TAF TAF EGNS 090800Z 0909/0921 29012KT 9999 SCT018